首页
METAR-TAF:

METAR-TAF

机场 :

開雲-羅尚博國際機場

開雲, 法屬圭亞那

纬度: 04-50N, 经度: 052-22W, 海拔: 105米

当前天气观测

该预报发布于24分钟前的21:00 UTC
静风
温度 25°C
湿度 89%
气压 1014 hPa
能见度10公里或以上

METAR: SOCA 182100Z AUTO 00000KT 9999 FEW035/// ///TCU 25/23 Q1014 BECMG FEW020

时间: 18:24 (21:24 UTC)

预报

该预报发布于5小时和24分钟前的16:00 UTC
预报有效从18日的 18点(UTC)到 19日的 18点(UTC)
风速5节,风向
能见度10公里或以上
散云层高于2500英尺
多云层高于4000英尺
几率 40% :
短暂存在
从 18日的 18点(UTC)到 18日的 20点(UTC)
能見度: 3000
少量云层高于1300英尺, 积雨云.
散云层高于1500英尺, 塔状积云.
阵雨
从 18日的 2200点(UTC)
风速2节,风向多变
能见度10公里或以上
少量云层高于2000英尺
几率 30% :
短暂存在
从 19日的 06点(UTC)到 19日的 10点(UTC)
能見度: 3000
少量云层高于1500英尺, 塔状积云.
阵雨
成为
从 19日的 10点(UTC)到 19日的 12点(UTC)
风速8节,风向

TAF: SOCA 181600Z 1818/1918 10005KT 9999 SCT025 BKN040 PROB40 TEMPO 1818/1820 3000 SHRA FEW013CB SCT015TCU FM182200 VRB02KT 9999 FEW020 PROB30 TEMPO 1906/1910 3000 SHRA FEW015TCU BECMG 1910/1912 10008KT

超过4000个机场的气象观测和天气预报(METAR&TAF报告)。

可查询的气象台以黄色和红色小点在地图上表示。

将鼠标移到小点上方,可查看气象台名称。

然后点击查看天气观测和预报。

如需切换地图:点击带黑十字的绿色按钮放大地图;点击带横线的绿色按钮缩小地图;或者点击绿色箭头查看邻近地区的地图。


METAR-TAF: